sensor_id;sensor_type;location;lat;lon;timestamp;pressure;altitude;pressure_sealevel;temperature;humidity
67457;BME280;54319;52.038;4.640;2023-05-27T00:00:17;103096.88;;;9.51;85.38
67457;BME280;54319;52.038;4.640;2023-05-27T00:02:44;103104.50;;;9.48;85.85
67457;BME280;54319;52.038;4.640;2023-05-27T00:05:12;103098.63;;;9.43;85.80
67457;BME280;54319;52.038;4.640;2023-05-27T00:07:40;103100.63;;;9.40;85.76
67457;BME280;54319;52.038;4.640;2023-05-27T00:10:08;103114.56;;;9.37;85.98
67457;BME280;54319;52.038;4.640;2023-05-27T00:12:34;103102.09;;;9.35;85.86
67457;BME280;54319;52.038;4.640;2023-05-27T00:15:01;103101.69;;;9.30;85.65
67457;BME280;54319;52.038;4.640;2023-05-27T00:17:28;103102.84;;;9.27;86.06
67457;BME280;54319;52.038;4.640;2023-05-27T00:19:55;103091.53;;;9.22;86.22
67457;BME280;54319;52.038;4.640;2023-05-27T00:22:22;103096.41;;;9.18;86.47
67457;BME280;54319;52.038;4.640;2023-05-27T00:24:50;103091.13;;;9.17;86.28
67457;BME280;54319;52.038;4.640;2023-05-27T00:27:16;103089.53;;;9.14;86.52
67457;BME280;54319;52.038;4.640;2023-05-27T00:29:43;103089.13;;;9.09;86.44
67457;BME280;54319;52.038;4.640;2023-05-27T00:32:09;103075.53;;;8.99;86.56
67457;BME280;54319;52.038;4.640;2023-05-27T00:34:36;103089.84;;;9.01;86.38
67457;BME280;54319;52.038;4.640;2023-05-27T00:37:04;103083.69;;;8.99;86.31
67457;BME280;54319;52.038;4.640;2023-05-27T00:39:30;103073.25;;;8.94;86.61
67457;BME280;54319;52.038;4.640;2023-05-27T00:41:59;103078.13;;;8.91;86.55
67457;BME280;54319;52.038;4.640;2023-05-27T00:44:27;103077.53;;;8.87;87.07
67457;BME280;54319;52.038;4.640;2023-05-27T00:46:54;103075.84;;;8.86;87.46
67457;BME280;54319;52.038;4.640;2023-05-27T00:49:21;103080.72;;;8.82;87.04
67457;BME280;54319;52.038;4.640;2023-05-27T00:51:50;103084.44;;;8.81;87.12
67457;BME280;54319;52.038;4.640;2023-05-27T00:54:17;103074.88;;;8.67;87.13
67457;BME280;54319;52.038;4.640;2023-05-27T00:56:44;103099.66;;;8.74;87.39
67457;BME280;54319;52.038;4.640;2023-05-27T00:59:12;103088.91;;;8.73;87.30
67457;BME280;54319;52.038;4.640;2023-05-27T01:01:40;103087.31;;;8.70;87.46
67457;BME280;54319;52.038;4.640;2023-05-27T01:04:09;103079.72;;;8.64;87.58
67457;BME280;54319;52.038;4.640;2023-05-27T01:06:42;103057.13;;;8.53;87.67
67457;BME280;54319;52.038;4.640;2023-05-27T01:09:18;103051.34;;;8.47;88.03
67457;BME280;54319;52.038;4.640;2023-05-27T01:11:55;103065.28;;;8.53;88.28
67457;BME280;54319;52.038;4.640;2023-05-27T01:14:26;103070.72;;;8.53;88.33
67457;BME280;54319;52.038;4.640;2023-05-27T01:16:56;103070.13;;;8.50;88.50
67457;BME280;54319;52.038;4.640;2023-05-27T01:19:27;103072.41;;;8.45;88.53
67457;BME280;54319;52.038;4.640;2023-05-27T01:21:57;103072.56;;;8.43;88.83
67457;BME280;54319;52.038;4.640;2023-05-27T01:24:26;103070.13;;;8.40;88.84
67457;BME280;54319;52.038;4.640;2023-05-27T01:26:53;103065.97;;;8.36;88.94
67457;BME280;54319;52.038;4.640;2023-05-27T01:29:20;103061.78;;;8.32;88.97
67457;BME280;54319;52.038;4.640;2023-05-27T01:31:53;103052.66;;;8.23;89.12
67457;BME280;54319;52.038;4.640;2023-05-27T01:34:26;103063.25;;;8.26;89.58
67457;BME280;54319;52.038;4.640;2023-05-27T01:36:59;103066.97;;;8.25;89.47
67457;BME280;54319;52.038;4.640;2023-05-27T01:39:30;102955.44;;;7.56;89.58
67457;BME280;54319;52.038;4.640;2023-05-27T01:42:00;103069.38;;;8.18;89.84
67457;BME280;54319;52.038;4.640;2023-05-27T01:44:28;103061.50;;;8.15;89.34
67457;BME280;54319;52.038;4.640;2023-05-27T01:46:59;103065.22;;;8.14;90.00
67457;BME280;54319;52.038;4.640;2023-05-27T01:49:26;103060.91;;;8.11;90.53
67457;BME280;54319;52.038;4.640;2023-05-27T01:51:52;103058.06;;;8.03;89.87
67457;BME280;54319;52.038;4.640;2023-05-27T01:54:19;103064.38;;;8.04;90.31
67457;BME280;54319;52.038;4.640;2023-05-27T01:56:47;103068.09;;;8.03;91.21
67457;BME280;54319;52.038;4.640;2023-05-27T01:59:14;103074.66;;;8.00;91.36
67457;BME280;54319;52.038;4.640;2023-05-27T02:01:41;103070.09;;;8.01;91.55
67457;BME280;54319;52.038;4.640;2023-05-27T02:04:08;103066.66;;;7.99;91.45
67457;BME280;54319;52.038;4.640;2023-05-27T02:06:35;103062.75;;;7.91;91.35
67457;BME280;54319;52.038;4.640;2023-05-27T02:09:01;103052.44;;;7.85;91.48
67457;BME280;54319;52.038;4.640;2023-05-27T02:11:28;103055.88;;;7.87;91.90
67457;BME280;54319;52.038;4.640;2023-05-27T02:13:56;103046.84;;;7.77;91.74
67457;BME280;54319;52.038;4.640;2023-05-27T02:16:24;103063.31;;;7.85;91.94
67457;BME280;54319;52.038;4.640;2023-05-27T02:18:51;103061.59;;;7.84;91.99
67457;BME280;54319;52.038;4.640;2023-05-27T02:21:17;103064.59;;;7.81;91.93
67457;BME280;54319;52.038;4.640;2023-05-27T02:23:44;103059.56;;;7.76;92.56
67457;BME280;54319;52.038;4.640;2023-05-27T02:26:11;103065.00;;;7.76;92.67
67457;BME280;54319;52.038;4.640;2023-05-27T02:28:37;103066.00;;;7.75;92.62
67457;BME280;54319;52.038;4.640;2023-05-27T02:31:05;103063.44;;;7.74;92.81
67457;BME280;54319;52.038;4.640;2023-05-27T02:33:32;103065.44;;;7.72;93.20
67457;BME280;54319;52.038;4.640;2023-05-27T02:35:59;103063.72;;;7.71;92.92
67457;BME280;54319;52.038;4.640;2023-05-27T02:38:25;103059.56;;;7.66;93.13
67457;BME280;54319;52.038;4.640;2023-05-27T02:40:52;103051.25;;;7.58;93.41
67457;BME280;54319;52.038;4.640;2023-05-27T02:43:19;103061.28;;;7.67;93.26
67457;BME280;54319;52.038;4.640;2023-05-27T02:45:46;103057.69;;;7.67;93.75
67457;BME280;54319;52.038;4.640;2023-05-27T02:48:17;103062.28;;;7.66;93.73
67457;BME280;54319;52.038;4.640;2023-05-27T02:50:44;103067.00;;;7.64;94.08
67457;BME280;54319;52.038;4.640;2023-05-27T02:53:10;103059.41;;;7.58;94.07
67457;BME280;54319;52.038;4.640;2023-05-27T02:55:37;103058.84;;;7.64;93.69
67457;BME280;54319;52.038;4.640;2023-05-27T02:58:04;103057.25;;;7.62;93.69
67457;BME280;54319;52.038;4.640;2023-05-27T03:00:32;103030.31;;;7.39;93.47
67457;BME280;54319;52.038;4.640;2023-05-27T03:03:00;103049.66;;;7.56;93.23
67457;BME280;54319;52.038;4.640;2023-05-27T03:05:30;103048.22;;;7.51;92.79
67457;BME280;54319;52.038;4.640;2023-05-27T03:07:57;103051.66;;;7.53;93.14
67457;BME280;54319;52.038;4.640;2023-05-27T03:10:24;103036.03;;;7.46;93.25
67457;BME280;54319;52.038;4.640;2023-05-27T03:12:53;103046.50;;;7.50;93.40
67457;BME280;54319;52.038;4.640;2023-05-27T03:15:19;103054.75;;;7.49;93.97
67457;BME280;54319;52.038;4.640;2023-05-27T03:17:47;103054.50;;;7.52;94.40
67457;BME280;54319;52.038;4.640;2023-05-27T03:20:14;103058.91;;;7.53;94.08
67457;BME280;54319;52.038;4.640;2023-05-27T03:22:43;103058.91;;;7.53;94.13
67457;BME280;54319;52.038;4.640;2023-05-27T03:25:10;103061.91;;;7.50;94.33
67457;BME280;54319;52.038;4.640;2023-05-27T03:27:37;103054.03;;;7.47;94.37
67457;BME280;54319;52.038;4.640;2023-05-27T03:30:05;103048.31;;;7.40;94.75
67457;BME280;54319;52.038;4.640;2023-05-27T03:32:32;103032.69;;;7.32;94.68
67457;BME280;54319;52.038;4.640;2023-05-27T03:34:59;103057.59;;;7.37;94.50
67457;BME280;54319;52.038;4.640;2023-05-27T03:37:26;103057.31;;;7.41;95.13
67457;BME280;54319;52.038;4.640;2023-05-27T03:39:54;103057.19;;;7.42;95.14
67457;BME280;54319;52.038;4.640;2023-05-27T03:42:20;103026.66;;;7.29;95.33
67457;BME280;54319;52.038;4.640;2023-05-27T03:44:47;103010.31;;;7.09;95.45
67457;BME280;54319;52.038;4.640;2023-05-27T03:47:14;103044.84;;;7.38;95.40
67457;BME280;54319;52.038;4.640;2023-05-27T03:49:42;103045.84;;;7.37;95.40
67457;BME280;54319;52.038;4.640;2023-05-27T03:52:09;102988.28;;;7.02;95.46
67457;BME280;54319;52.038;4.640;2023-05-27T03:54:36;103049.72;;;7.34;95.71
67457;BME280;54319;52.038;4.640;2023-05-27T03:57:04;103035.97;;;7.36;95.88
67457;BME280;54319;52.038;4.640;2023-05-27T03:59:31;103021.84;;;7.32;95.75
67457;BME280;54319;52.038;4.640;2023-05-27T04:01:57;103040.28;;;7.38;96.03
67457;BME280;54319;52.038;4.640;2023-05-27T04:04:24;103032.28;;;7.37;96.17
67457;BME280;54319;52.038;4.640;2023-05-27T04:06:51;103035.00;;;7.37;96.20
67457;BME280;54319;52.038;4.640;2023-05-27T04:09:18;103024.41;;;7.34;96.21
67457;BME280;54319;52.038;4.640;2023-05-27T04:11:45;103025.28;;;7.34;96.01
67457;BME280;54319;52.038;4.640;2023-05-27T04:14:13;103019.41;;;7.29;96.20
67457;BME280;54319;52.038;4.640;2023-05-27T04:16:40;103030.56;;;7.36;95.88
67457;BME280;54319;52.038;4.640;2023-05-27T04:19:07;103023.13;;;7.38;96.09
67457;BME280;54319;52.038;4.640;2023-05-27T04:21:35;103021.41;;;7.37;96.40
67457;BME280;54319;52.038;4.640;2023-05-27T04:24:02;103029.16;;;7.42;96.29
67457;BME280;54319;52.038;4.640;2023-05-27T04:26:28;103030.59;;;7.46;96.48
67457;BME280;54319;52.038;4.640;2023-05-27T04:28:55;103025.03;;;7.47;96.38
67457;BME280;54319;52.038;4.640;2023-05-27T04:31:26;103024.63;;;7.52;96.34
67457;BME280;54319;52.038;4.640;2023-05-27T04:33:54;103027.31;;;7.52;96.08
67457;BME280;54319;52.038;4.640;2023-05-27T04:36:21;103031.34;;;7.58;96.09
67457;BME280;54319;52.038;4.640;2023-05-27T04:38:50;103027.78;;;7.57;96.26
67457;BME280;54319;52.038;4.640;2023-05-27T04:41:17;103030.69;;;7.65;96.39
67457;BME280;54319;52.038;4.640;2023-05-27T04:43:46;103043.81;;;7.70;96.53
67457;BME280;54319;52.038;4.640;2023-05-27T04:46:13;103031.84;;;7.73;96.30
67457;BME280;54319;52.038;4.640;2023-05-27T04:48:41;103040.28;;;7.79;96.19
67457;BME280;54319;52.038;4.640;2023-05-27T04:51:10;103043.72;;;7.81;96.22
67457;BME280;54319;52.038;4.640;2023-05-27T04:53:37;103041.13;;;7.80;96.21
67457;BME280;54319;52.038;4.640;2023-05-27T04:56:05;103043.88;;;7.90;96.11
67457;BME280;54319;52.038;4.640;2023-05-27T04:58:33;103048.88;;;7.94;96.07
67457;BME280;54319;52.038;4.640;2023-05-27T05:01:00;103038.75;;;7.96;95.69
67457;BME280;54319;52.038;4.640;2023-05-27T05:03:27;103042.75;;;8.02;95.42
67457;BME280;54319;52.038;4.640;2023-05-27T05:06:04;103036.03;;;8.06;95.90
67457;BME280;54319;52.038;4.640;2023-05-27T05:08:31;103036.31;;;8.13;95.70
67457;BME280;54319;52.038;4.640;2023-05-27T05:10:58;103025.44;;;8.13;95.68
67457;BME280;54319;52.038;4.640;2023-05-27T05:13:25;102976.06;;;7.88;95.31
67457;BME280;54319;52.038;4.640;2023-05-27T05:15:54;103027.03;;;8.25;95.02
67457;BME280;54319;52.038;4.640;2023-05-27T05:18:21;103016.59;;;8.21;95.00
67457;BME280;54319;52.038;4.640;2023-05-27T05:20:47;103024.59;;;8.32;94.82
67457;BME280;54319;52.038;4.640;2023-05-27T05:23:16;103016.31;;;8.34;94.97
67457;BME280;54319;52.038;4.640;2023-05-27T05:25:43;103022.88;;;8.41;94.38
67457;BME280;54319;52.038;4.640;2023-05-27T05:28:10;103006.28;;;8.44;94.77
67457;BME280;54319;52.038;4.640;2023-05-27T05:30:37;103016.44;;;8.52;94.48
67457;BME280;54319;52.038;4.640;2023-05-27T05:33:04;103016.00;;;8.57;94.48
67457;BME280;54319;52.038;4.640;2023-05-27T05:35:30;103000.69;;;8.56;94.38
67457;BME280;54319;52.038;4.640;2023-05-27T05:37:57;103011.41;;;8.67;94.14
67457;BME280;54319;52.038;4.640;2023-05-27T05:40:25;102989.81;;;8.56;93.86
67457;BME280;54319;52.038;4.640;2023-05-27T05:42:52;103017.72;;;8.77;93.80
67457;BME280;54319;52.038;4.640;2023-05-27T05:45:18;103007.25;;;8.82;93.51
67457;BME280;54319;52.038;4.640;2023-05-27T05:47:45;103001.34;;;8.87;93.58
67457;BME280;54319;52.038;4.640;2023-05-27T05:50:12;102999.91;;;8.93;93.10
67457;BME280;54319;52.038;4.640;2023-05-27T05:52:38;102997.59;;;8.98;93.03
67457;BME280;54319;52.038;4.640;2023-05-27T05:55:06;102997.28;;;9.01;92.43
67457;BME280;54319;52.038;4.640;2023-05-27T05:57:34;103001.28;;;9.07;91.99
67457;BME280;54319;52.038;4.640;2023-05-27T06:00:01;102997.25;;;9.11;92.25
67457;BME280;54319;52.038;4.640;2023-05-27T06:02:27;103000.25;;;9.18;91.72
67457;BME280;54319;52.038;4.640;2023-05-27T06:04:54;102995.19;;;9.23;91.78
67457;BME280;54319;52.038;4.640;2023-05-27T06:07:21;102996.47;;;9.29;91.81
67457;BME280;54319;52.038;4.640;2023-05-27T06:09:47;102994.84;;;9.36;91.68
67457;BME280;54319;52.038;4.640;2023-05-27T06:12:14;102993.69;;;9.38;90.83
67457;BME280;54319;52.038;4.640;2023-05-27T06:14:42;102984.38;;;9.41;90.94
67457;BME280;54319;52.038;4.640;2023-05-27T06:17:09;102983.63;;;9.49;90.28
67457;BME280;54319;52.038;4.640;2023-05-27T06:19:35;102988.75;;;9.52;90.26
67457;BME280;54319;52.038;4.640;2023-05-27T06:22:02;102981.81;;;9.58;90.08
67457;BME280;54319;52.038;4.640;2023-05-27T06:24:30;102974.91;;;9.63;90.20
67457;BME280;54319;52.038;4.640;2023-05-27T06:26:57;102958.88;;;9.60;89.35
67457;BME280;54319;52.038;4.640;2023-05-27T06:29:23;102943.34;;;9.61;89.49
67457;BME280;54319;52.038;4.640;2023-05-27T06:31:51;102966.03;;;9.79;88.98
67457;BME280;54319;52.038;4.640;2023-05-27T06:34:18;102953.50;;;9.87;89.11
67457;BME280;54319;52.038;4.640;2023-05-27T06:36:45;102950.00;;;9.94;89.18
67457;BME280;54319;52.038;4.640;2023-05-27T06:39:14;102950.91;;;10.03;88.96
67457;BME280;54319;52.038;4.640;2023-05-27T06:41:40;102943.59;;;10.04;88.19
67457;BME280;54319;52.038;4.640;2023-05-27T06:44:07;102955.84;;;10.18;88.04
67457;BME280;54319;52.038;4.640;2023-05-27T06:46:34;102941.56;;;10.24;87.87
67457;BME280;54319;52.038;4.640;2023-05-27T06:49:02;102947.94;;;10.33;87.04
67457;BME280;54319;52.038;4.640;2023-05-27T06:51:28;102937.88;;;10.33;87.16
67457;BME280;54319;52.038;4.640;2023-05-27T06:53:56;102937.00;;;10.51;86.50
67457;BME280;54319;52.038;4.640;2023-05-27T06:56:22;102941.66;;;10.59;85.80
67457;BME280;54319;52.038;4.640;2023-05-27T06:58:49;102941.72;;;10.67;85.85
67457;BME280;54319;52.038;4.640;2023-05-27T07:01:15;102947.22;;;10.75;85.17
67457;BME280;54319;52.038;4.640;2023-05-27T07:03:42;102939.94;;;10.84;85.54
67457;BME280;54319;52.038;4.640;2023-05-27T07:06:11;102938.41;;;10.90;85.31
67457;BME280;54319;52.038;4.640;2023-05-27T07:08:39;102930.25;;;10.98;85.03
67457;BME280;54319;52.038;4.640;2023-05-27T07:11:06;102936.16;;;11.11;84.30
67457;BME280;54319;52.038;4.640;2023-05-27T07:13:33;102927.63;;;11.23;83.97
67457;BME280;54319;52.038;4.640;2023-05-27T07:15:59;102939.38;;;11.66;82.56
67457;BME280;54319;52.038;4.640;2023-05-27T07:18:26;102951.59;;;12.22;81.52
67457;BME280;54319;52.038;4.640;2023-05-27T07:20:52;102933.72;;;12.76;78.59
67457;BME280;54319;52.038;4.640;2023-05-27T07:23:20;102931.81;;;13.24;75.97
67457;BME280;54319;52.038;4.640;2023-05-27T07:25:47;102931.53;;;13.74;74.24
67457;BME280;54319;52.038;4.640;2023-05-27T07:28:15;102935.50;;;14.18;72.03
67457;BME280;54319;52.038;4.640;2023-05-27T07:30:42;102929.41;;;14.46;69.17
67457;BME280;54319;52.038;4.640;2023-05-27T07:33:08;102907.34;;;14.54;68.39
67457;BME280;54319;52.038;4.640;2023-05-27T07:35:35;102929.91;;;15.10;67.40
67457;BME280;54319;52.038;4.640;2023-05-27T07:38:02;102932.28;;;15.49;66.08
67457;BME280;54319;52.038;4.640;2023-05-27T07:40:30;102920.28;;;15.94;64.75
67457;BME280;54319;52.038;4.640;2023-05-27T07:42:56;102924.88;;;16.37;61.73
67457;BME280;54319;52.038;4.640;2023-05-27T07:45:23;102930.13;;;16.60;59.92
67457;BME280;54319;52.038;4.640;2023-05-27T07:47:50;102926.22;;;16.83;59.55
67457;BME280;54319;52.038;4.640;2023-05-27T07:50:16;102918.34;;;17.09;57.71
67457;BME280;54319;52.038;4.640;2023-05-27T07:52:43;102918.59;;;17.20;58.44
67457;BME280;54319;52.038;4.640;2023-05-27T07:55:10;102907.91;;;17.04;58.21
67457;BME280;54319;52.038;4.640;2023-05-27T07:57:38;102924.53;;;16.82;59.57
67457;BME280;54319;52.038;4.640;2023-05-27T08:00:08;102922.19;;;16.79;59.74
67457;BME280;54319;52.038;4.640;2023-05-27T08:02:35;102893.09;;;16.70;60.62
67457;BME280;54319;52.038;4.640;2023-05-27T08:05:02;102904.47;;;16.95;60.27
67457;BME280;54319;52.038;4.640;2023-05-27T08:07:29;102905.78;;;16.99;60.56
67457;BME280;54319;52.038;4.640;2023-05-27T08:09:56;102901.59;;;17.10;59.41
67457;BME280;54319;52.038;4.640;2023-05-27T08:12:22;102901.13;;;17.06;58.00
67457;BME280;54319;52.038;4.640;2023-05-27T08:14:51;102892.50;;;17.23;58.13
67457;BME280;54319;52.038;4.640;2023-05-27T08:17:18;102893.19;;;17.39;58.14
67457;BME280;54319;52.038;4.640;2023-05-27T08:19:45;102829.47;;;17.20;56.42
67457;BME280;54319;52.038;4.640;2023-05-27T08:22:11;102888.81;;;17.64;55.82
67457;BME280;54319;52.038;4.640;2023-05-27T08:24:38;102890.47;;;17.45;54.23
67457;BME280;54319;52.038;4.640;2023-05-27T08:27:05;102889.63;;;17.65;56.25
67457;BME280;54319;52.038;4.640;2023-05-27T08:29:34;102870.31;;;17.78;54.43
67457;BME280;54319;52.038;4.640;2023-05-27T08:32:03;102888.00;;;18.11;54.57
67457;BME280;54319;52.038;4.640;2023-05-27T08:34:30;102878.84;;;18.11;54.00
67457;BME280;54319;52.038;4.640;2023-05-27T08:36:56;102879.06;;;18.16;53.68
67457;BME280;54319;52.038;4.640;2023-05-27T08:39:25;102858.91;;;18.02;55.82
67457;BME280;54319;52.038;4.640;2023-05-27T08:41:57;102869.50;;;18.18;55.63
67457;BME280;54319;52.038;4.640;2023-05-27T08:44:27;102862.72;;;18.01;54.18
67457;BME280;54319;52.038;4.640;2023-05-27T08:46:56;102857.59;;;17.91;54.04
67457;BME280;54319;52.038;4.640;2023-05-27T08:49:26;102852.09;;;18.04;55.12
67457;BME280;54319;52.038;4.640;2023-05-27T08:51:54;102853.59;;;18.07;55.59
67457;BME280;54319;52.038;4.640;2023-05-27T08:54:21;102844.88;;;18.10;53.15
67457;BME280;54319;52.038;4.640;2023-05-27T08:56:51;102846.75;;;17.69;55.09
67457;BME280;54319;52.038;4.640;2023-05-27T08:59:24;102844.00;;;17.76;56.03
67457;BME280;54319;52.038;4.640;2023-05-27T09:01:50;102814.47;;;17.49;55.15
67457;BME280;54319;52.038;4.640;2023-05-27T09:04:17;102836.16;;;17.73;56.46
67457;BME280;54319;52.038;4.640;2023-05-27T09:06:45;102831.28;;;17.82;55.81
67457;BME280;54319;52.038;4.640;2023-05-27T09:09:12;102827.84;;;17.93;54.46
67457;BME280;54319;52.038;4.640;2023-05-27T09:11:39;102817.88;;;18.12;53.83
67457;BME280;54319;52.038;4.640;2023-05-27T09:14:12;102815.56;;;18.02;53.65
67457;BME280;54319;52.038;4.640;2023-05-27T09:16:46;102818.09;;;17.77;54.59
67457;BME280;54319;52.038;4.640;2023-05-27T09:19:16;102825.09;;;18.00;55.18
67457;BME280;54319;52.038;4.640;2023-05-27T09:21:43;102823.59;;;18.17;54.74
67457;BME280;54319;52.038;4.640;2023-05-27T09:24:11;102811.69;;;18.30;54.31
67457;BME280;54319;52.038;4.640;2023-05-27T09:26:37;102802.78;;;18.21;53.92
67457;BME280;54319;52.038;4.640;2023-05-27T09:29:06;102811.06;;;18.28;53.62
67457;BME280;54319;52.038;4.640;2023-05-27T09:31:38;102808.69;;;18.39;53.76
67457;BME280;54319;52.038;4.640;2023-05-27T09:34:15;102810.81;;;18.43;52.49
67457;BME280;54319;52.038;4.640;2023-05-27T09:36:43;102802.66;;;18.62;52.72
67457;BME280;54319;52.038;4.640;2023-05-27T09:39:12;102805.41;;;18.69;52.73
67457;BME280;54319;52.038;4.640;2023-05-27T09:41:39;102809.16;;;18.81;52.96
67457;BME280;54319;52.038;4.640;2023-05-27T09:44:06;102805.94;;;18.98;51.91
67457;BME280;54319;52.038;4.640;2023-05-27T09:46:33;102795.75;;;19.23;51.27
67457;BME280;54319;52.038;4.640;2023-05-27T09:49:00;102809.50;;;19.37;51.38
67457;BME280;54319;52.038;4.640;2023-05-27T09:51:27;102806.47;;;19.45;51.32
67457;BME280;54319;52.038;4.640;2023-05-27T09:53:54;102779.78;;;19.26;51.49
67457;BME280;54319;52.038;4.640;2023-05-27T09:56:23;102766.97;;;19.31;49.98
67457;BME280;54319;52.038;4.640;2023-05-27T09:58:51;102797.72;;;19.74;50.88
67457;BME280;54319;52.038;4.640;2023-05-27T10:01:18;102801.56;;;19.98;49.46
67457;BME280;54319;52.038;4.640;2023-05-27T10:03:46;102795.06;;;19.35;49.09
67457;BME280;54319;52.038;4.640;2023-05-27T10:06:14;102793.44;;;19.20;50.06
67457;BME280;54319;52.038;4.640;2023-05-27T10:08:42;102798.13;;;19.52;49.86
67457;BME280;54319;52.038;4.640;2023-05-27T10:11:09;102773.13;;;19.59;49.31
67457;BME280;54319;52.038;4.640;2023-05-27T10:13:38;102790.78;;;19.64;48.93
67457;BME280;54319;52.038;4.640;2023-05-27T10:16:05;102789.53;;;19.60;50.70
67457;BME280;54319;52.038;4.640;2023-05-27T10:18:32;102783.88;;;19.48;50.07
67457;BME280;54319;52.038;4.640;2023-05-27T10:21:00;102770.94;;;19.93;51.56
67457;BME280;54319;52.038;4.640;2023-05-27T10:23:30;102778.47;;;20.04;47.40
67457;BME280;54319;52.038;4.640;2023-05-27T10:26:04;102775.13;;;20.21;47.61
67457;BME280;54319;52.038;4.640;2023-05-27T10:28:32;102767.78;;;20.27;48.48
67457;BME280;54319;52.038;4.640;2023-05-27T10:31:06;102759.94;;;20.42;48.28
67457;BME280;54319;52.038;4.640;2023-05-27T10:33:36;102757.41;;;20.22;48.72
67457;BME280;54319;52.038;4.640;2023-05-27T10:36:04;102755.25;;;20.05;48.38
67457;BME280;54319;52.038;4.640;2023-05-27T10:38:31;102746.22;;;20.47;48.59
67457;BME280;54319;52.038;4.640;2023-05-27T10:40:59;102755.19;;;20.80;47.83
67457;BME280;54319;52.038;4.640;2023-05-27T10:43:27;102753.25;;;21.11;46.32
67457;BME280;54319;52.038;4.640;2023-05-27T10:46:01;102746.16;;;21.03;46.86
67457;BME280;54319;52.038;4.640;2023-05-27T10:48:30;102734.25;;;20.84;44.54
67457;BME280;54319;52.038;4.640;2023-05-27T10:50:58;102738.19;;;20.58;46.53
67457;BME280;54319;52.038;4.640;2023-05-27T10:53:26;102734.41;;;20.71;46.66
67457;BME280;54319;52.038;4.640;2023-05-27T10:55:53;102727.84;;;20.84;46.71
67457;BME280;54319;52.038;4.640;2023-05-27T10:58:20;102713.91;;;21.02;45.15
67457;BME280;54319;52.038;4.640;2023-05-27T11:00:48;102723.09;;;21.03;45.57
67457;BME280;54319;52.038;4.640;2023-05-27T11:03:19;102706.47;;;21.38;45.29
67457;BME280;54319;52.038;4.640;2023-05-27T11:05:56;102711.47;;;21.72;45.42
67457;BME280;54319;52.038;4.640;2023-05-27T11:08:24;102706.25;;;22.00;43.77
67457;BME280;54319;52.038;4.640;2023-05-27T11:10:50;102705.38;;;22.11;43.72
67457;BME280;54319;52.038;4.640;2023-05-27T11:13:17;102702.84;;;22.09;40.80
67457;BME280;54319;52.038;4.640;2023-05-27T11:15:43;102703.31;;;22.18;41.76
67457;BME280;54319;52.038;4.640;2023-05-27T11:18:10;102697.19;;;22.04;42.31
67457;BME280;54319;52.038;4.640;2023-05-27T11:20:37;102698.28;;;21.91;43.48
67457;BME280;54319;52.038;4.640;2023-05-27T11:23:06;102690.06;;;21.96;43.96
67457;BME280;54319;52.038;4.640;2023-05-27T11:25:41;102692.34;;;22.11;41.76
67457;BME280;54319;52.038;4.640;2023-05-27T11:28:13;102689.06;;;22.55;41.51
67457;BME280;54319;52.038;4.640;2023-05-27T11:30:43;102621.94;;;22.23;42.89
67457;BME280;54319;52.038;4.640;2023-05-27T11:33:10;102671.28;;;22.57;40.23
67457;BME280;54319;52.038;4.640;2023-05-27T11:35:37;102667.25;;;22.64;39.87
67457;BME280;54319;52.038;4.640;2023-05-27T11:38:03;102664.72;;;22.63;39.79
67457;BME280;54319;52.038;4.640;2023-05-27T11:40:35;102657.88;;;22.70;39.56
67457;BME280;54319;52.038;4.640;2023-05-27T11:43:02;102661.53;;;22.71;41.45
67457;BME280;54319;52.038;4.640;2023-05-27T11:45:29;102649.72;;;22.64;42.06
67457;BME280;54319;52.038;4.640;2023-05-27T11:47:56;102640.91;;;22.84;41.23
67457;BME280;54319;52.038;4.640;2023-05-27T11:50:25;102655.00;;;23.29;41.53
67457;BME280;54319;52.038;4.640;2023-05-27T11:52:53;102641.78;;;23.58;39.57
67457;BME280;54319;52.038;4.640;2023-05-27T11:55:20;102637.81;;;23.54;37.73
67457;BME280;54319;52.038;4.640;2023-05-27T11:57:49;102640.41;;;23.38;39.96
67457;BME280;54319;52.038;4.640;2023-05-27T12:00:16;102631.06;;;23.50;39.47
67457;BME280;54319;52.038;4.640;2023-05-27T12:02:44;102634.66;;;23.67;38.59
67457;BME280;54319;52.038;4.640;2023-05-27T12:05:11;102623.63;;;23.33;39.75
67457;BME280;54319;52.038;4.640;2023-05-27T12:07:38;102623.94;;;23.03;40.25
67457;BME280;54319;52.038;4.640;2023-05-27T12:10:07;102619.38;;;23.13;41.84
67457;BME280;54319;52.038;4.640;2023-05-27T12:12:34;102614.47;;;23.38;42.15
67457;BME280;54319;52.038;4.640;2023-05-27T12:15:05;102610.38;;;23.63;40.74
67457;BME280;54319;52.038;4.640;2023-05-27T12:17:32;102610.38;;;23.63;39.07
67457;BME280;54319;52.038;4.640;2023-05-27T12:19:59;102609.97;;;23.76;40.15
67457;BME280;54319;52.038;4.640;2023-05-27T12:22:26;102600.84;;;24.03;40.62
67457;BME280;54319;52.038;4.640;2023-05-27T12:24:52;102603.13;;;24.06;41.06
67457;BME280;54319;52.038;4.640;2023-05-27T12:27:19;102603.13;;;24.06;39.75
67457;BME280;54319;52.038;4.640;2023-05-27T12:29:46;102598.75;;;24.16;39.43
67457;BME280;54319;52.038;4.640;2023-05-27T12:32:14;102587.19;;;24.29;40.35
67457;BME280;54319;52.038;4.640;2023-05-27T12:34:41;102583.41;;;24.40;39.91
67457;BME280;54319;52.038;4.640;2023-05-27T12:37:07;102579.84;;;24.78;39.78
67457;BME280;54319;52.038;4.640;2023-05-27T12:39:34;102582.13;;;24.86;37.50
67457;BME280;54319;52.038;4.640;2023-05-27T12:42:01;102582.25;;;25.02;38.02
67457;BME280;54319;52.038;4.640;2023-05-27T12:44:27;102579.56;;;25.17;39.31
67457;BME280;54319;52.038;4.640;2023-05-27T12:46:54;102577.94;;;25.32;39.23
67457;BME280;54319;52.038;4.640;2023-05-27T12:49:22;102583.22;;;25.23;39.69
67457;BME280;54319;52.038;4.640;2023-05-27T12:51:48;102579.53;;;25.60;37.59
67457;BME280;54319;52.038;4.640;2023-05-27T12:54:15;102575.88;;;25.54;37.78
67457;BME280;54319;52.038;4.640;2023-05-27T12:56:41;102567.47;;;25.49;36.01